Time;durP1;ratioP1;P1;durP2;ratioP2;P2;SDS_P1;SDS_P2;PMS_P1;PMS_P2;Temp;Humidity;BMP_temperature;BMP_pressure;BME280_temperature;BME280_humidity;BME280_pressure;Samples;Min_cycle;Max_cycle;Signal;HPM_P1;HPM_P2
2022/09/16 00:01:57;;;;;;;6.93;2.88;;;;;;;;;;6216686;23;20036;-66
2022/09/16 00:04:25;;;;;;;9.48;2.42;;;;;;;;;;6190237;23;20025;-66
2022/09/16 00:06:52;;;;;;;6.43;3.17;;;;;;;;;;6216326;23;20021;-66
2022/09/16 00:09:20;;;;;;;11.43;2.90;;;;;;;;;;6216667;23;20023;-66
2022/09/16 00:11:47;;;;;;;7.30;2.85;;;;;;;;;;6216251;23;20013;-66
2022/09/16 00:14:15;;;;;;;7.60;2.70;;;;;;;;;;6216474;23;20446;-66
2022/09/16 00:16:42;;;;;;;8.63;3.03;;;;;;;;;;6216486;23;20012;-66
2022/09/16 00:19:10;;;;;;;10.73;3.58;;;;;;;;;;6216343;23;20021;-66
2022/09/16 00:21:37;;;;;;;12.48;2.97;;;;;;;;;;6216427;23;20024;-66
2022/09/16 00:24:05;;;;;;;13.00;4.80;;;;;;;;;;6216447;23;20030;-66
2022/09/16 00:26:33;;;;;;;5.63;2.72;;;;;;;;;;6216528;23;20071;-66
2022/09/16 00:29:01;;;;;;;9.85;2.92;;;;;;;;;;6189274;23;20338;-66
2022/09/16 00:31:28;;;;;;;8.15;3.00;;;;;;;;;;6216667;23;20021;-66
2022/09/16 00:33:56;;;;;;;6.35;2.78;;;;;;;;;;6216007;23;20025;-66
2022/09/16 00:36:24;;;;;;;8.68;2.65;;;;;;;;;;6215920;23;20021;-66
2022/09/16 00:38:52;;;;;;;7.55;3.05;;;;;;;;;;6216448;23;20021;-66
2022/09/16 00:41:21;;;;;;;9.50;2.92;;;;;;;;;;6215941;23;20616;-66
2022/09/16 00:43:55;;;;;;;9.95;3.13;;;;;;;;;;6216003;23;20013;-66
2022/09/16 00:46:29;;;;;;;9.63;3.13;;;;;;;;;;6216344;23;20024;-66
2022/09/16 00:49:00;;;;;;;13.48;6.22;;;;;;;;;;6216716;23;20379;-66
2022/09/16 00:51:28;;;;;;;23.23;13.10;;;;;;;;;;6215611;23;20517;-66
2022/09/16 00:54:01;;;;;;;8.07;2.35;;;;;;;;;;6215977;23;20024;-66
2022/09/16 00:56:31;;;;;;;9.25;2.60;;;;;;;;;;6216102;23;20017;-66
2022/09/16 00:59:02;;;;;;;10.52;3.28;;;;;;;;;;6216067;23;20013;-66
2022/09/16 01:01:31;;;;;;;12.32;3.65;;;;;;;;;;6216011;23;20042;-66
2022/09/16 01:04:13;;;;;;;11.93;2.70;;;;;;;;;;6216006;23;20021;-66
2022/09/16 01:06:41;;;;;;;19.33;8.35;;;;;;;;;;6216175;23;20091;-66
2022/09/16 01:09:08;;;;;;;7.55;2.92;;;;;;;;;;6215948;23;20385;-66
2022/09/16 01:11:36;;;;;;;16.30;6.30;;;;;;;;;;6189367;23;20023;-66
2022/09/16 01:17:09;;;;;;;13.00;6.15;;;;;;;;;;6215885;23;20443;-66
2022/09/16 01:20:00;;;;;;;10.32;3.95;;;;;;;;;;6215687;23;20023;-66
2022/09/16 01:22:46;;;;;;;11.50;6.10;;;;;;;;;;6215696;23;20017;-66
2022/09/16 01:25:20;;;;;;;8.07;3.03;;;;;;;;;;6215665;23;20443;-66
2022/09/16 01:27:47;;;;;;;9.40;3.60;;;;;;;;;;6215740;23;20016;-66
2022/09/16 01:30:21;;;;;;;12.40;6.68;;;;;;;;;;6189115;23;20043;-66
2022/09/16 01:33:02;;;;;;;12.32;4.68;;;;;;;;;;6215712;23;20035;-66
2022/09/16 01:35:36;;;;;;;15.40;6.93;;;;;;;;;;6215572;23;20026;-66
2022/09/16 01:38:14;;;;;;;9.82;4.70;;;;;;;;;;6215764;23;20020;-66
2022/09/16 01:41:00;;;;;;;7.47;3.10;;;;;;;;;;6215848;23;20017;-66
2022/09/16 01:43:40;;;;;;;12.52;4.90;;;;;;;;;;6215286;23;20016;-66
2022/09/16 01:46:10;;;;;;;12.18;4.07;;;;;;;;;;6215462;23;20078;-66
2022/09/16 01:48:38;;;;;;;8.68;3.38;;;;;;;;;;6189050;23;20435;-66
2022/09/16 01:51:16;;;;;;;9.75;3.67;;;;;;;;;;6215329;23;20067;-66
2022/09/16 01:54:07;;;;;;;8.50;3.67;;;;;;;;;;6215575;23;20013;-66
2022/09/16 01:56:49;;;;;;;11.27;4.75;;;;;;;;;;6215750;23;20021;-66
2022/09/16 01:59:25;;;;;;;4.88;2.75;;;;;;;;;;6215426;23;20028;-66
2022/09/16 02:02:04;;;;;;;8.05;2.85;;;;;;;;;;6215456;23;20020;-66
2022/09/16 02:04:37;;;;;;;15.30;4.63;;;;;;;;;;6215343;23;20039;-67
2022/09/16 02:07:06;;;;;;;10.80;4.32;;;;;;;;;;6215447;23;20020;-66
2022/09/16 02:09:40;;;;;;;13.73;6.30;;;;;;;;;;6215278;23;20020;-66
2022/09/16 02:12:10;;;;;;;12.90;6.10;;;;;;;;;;6214904;23;20020;-66
2022/09/16 02:14:42;;;;;;;10.57;3.90;;;;;;;;;;6215366;23;20135;-66
2022/09/16 02:17:11;;;;;;;7.40;3.92;;;;;;;;;;6215449;23;20343;-66
2022/09/16 02:19:41;;;;;;;12.73;5.13;;;;;;;;;;6214936;23;20032;-66
2022/09/16 02:22:13;;;;;;;13.05;3.42;;;;;;;;;;6215177;23;20023;-66
2022/09/16 02:24:42;;;;;;;14.25;5.03;;;;;;;;;;6215522;23;20021;-66
2022/09/16 02:27:12;;;;;;;12.88;4.05;;;;;;;;;;6215205;23;20012;-66
2022/09/16 02:29:45;;;;;;;9.32;4.05;;;;;;;;;;6215533;23;20371;-66
2022/09/16 02:32:13;;;;;;;6.93;3.45;;;;;;;;;;6215341;23;20017;-66
2022/09/16 02:34:46;;;;;;;12.30;3.97;;;;;;;;;;6215215;23;20012;-66
2022/09/16 02:37:17;;;;;;;7.60;3.15;;;;;;;;;;6215263;23;20020;-66
2022/09/16 02:39:47;;;;;;;9.23;3.80;;;;;;;;;;6214932;23;20021;-66
2022/09/16 02:42:15;;;;;;;9.95;3.63;;;;;;;;;;6187918;23;20100;-66
2022/09/16 02:44:44;;;;;;;8.18;3.35;;;;;;;;;;6215130;23;20015;-66
2022/09/16 02:47:11;;;;;;;12.07;3.90;;;;;;;;;;6214791;23;20016;-66
2022/09/16 02:49:39;;;;;;;12.98;3.15;;;;;;;;;;6215162;23;20371;-66
2022/09/16 02:52:10;;;;;;;7.10;3.10;;;;;;;;;;6214775;23;20072;-66
2022/09/16 02:54:38;;;;;;;14.57;4.75;;;;;;;;;;6214922;23;20013;-66
2022/09/16 02:57:06;;;;;;;9.57;5.72;;;;;;;;;;6214906;23;20020;-66
2022/09/16 02:59:34;;;;;;;12.23;4.60;;;;;;;;;;6215065;23;20012;-67
2022/09/16 03:02:01;;;;;;;11.90;3.30;;;;;;;;;;6215303;23;20025;-66
2022/09/16 03:04:29;;;;;;;9.38;4.53;;;;;;;;;;6188740;23;20505;-65
2022/09/16 03:06:57;;;;;;;10.20;3.70;;;;;;;;;;6188707;23;20013;-65
2022/09/16 03:09:28;;;;;;;12.57;4.63;;;;;;;;;;6214526;23;20017;-65
2022/09/16 03:12:05;;;;;;;12.00;4.10;;;;;;;;;;6213851;23;20049;-66
2022/09/16 03:14:45;;;;;;;11.20;4.35;;;;;;;;;;6188996;23;20018;-65
2022/09/16 03:17:31;;;;;;;16.55;9.95;;;;;;;;;;6217345;23;20013;-65
2022/09/16 03:20:17;;;;;;;14.43;6.90;;;;;;;;;;6190298;23;20016;-66
2022/09/16 03:22:51;;;;;;;16.35;7.05;;;;;;;;;;6216548;23;20447;-65
2022/09/16 03:25:19;;;;;;;11.98;4.88;;;;;;;;;;6217043;23;20020;-65
2022/09/16 03:27:57;;;;;;;12.73;4.45;;;;;;;;;;6216855;23;20454;-65
2022/09/16 03:30:24;;;;;;;10.48;4.32;;;;;;;;;;6216595;23;20021;-65
2022/09/16 03:33:01;;;;;;;12.70;3.47;;;;;;;;;;6216619;23;20410;-65
2022/09/16 03:35:28;;;;;;;10.88;4.38;;;;;;;;;;6216638;23;20021;-65
2022/09/16 03:37:57;;;;;;;10.75;4.35;;;;;;;;;;6216717;23;20442;-65
2022/09/16 03:40:25;;;;;;;12.50;4.25;;;;;;;;;;6216674;23;20013;-65
2022/09/16 03:42:53;;;;;;;10.43;4.63;;;;;;;;;;6216311;23;20027;-65
2022/09/16 03:45:21;;;;;;;10.25;3.72;;;;;;;;;;6216030;23;20447;-66
2022/09/16 03:47:49;;;;;;;16.20;4.22;;;;;;;;;;6216487;23;20090;-65
2022/09/16 03:50:17;;;;;;;12.68;3.80;;;;;;;;;;6216282;23;20103;-65
2022/09/16 03:52:45;;;;;;;15.48;5.25;;;;;;;;;;6216690;23;20012;-65
2022/09/16 03:55:12;;;;;;;9.32;2.95;;;;;;;;;;6216625;23;20020;-65
2022/09/16 03:57:40;;;;;;;13.18;4.03;;;;;;;;;;6216293;23;20091;-65
2022/09/16 04:00:08;;;;;;;10.68;3.25;;;;;;;;;;6216525;23;20024;-65
2022/09/16 04:02:38;;;;;;;11.68;3.97;;;;;;;;;;6216355;23;20059;-65
2022/09/16 04:05:07;;;;;;;13.48;3.60;;;;;;;;;;6216323;23;20040;-68
2022/09/16 04:07:35;;;;;;;11.30;3.50;;;;;;;;;;6216582;23;20084;-65
2022/09/16 04:10:03;;;;;;;11.35;3.53;;;;;;;;;;6216369;23;20501;-65
2022/09/16 04:12:31;;;;;;;12.65;4.55;;;;;;;;;;6189619;23;20358;-66
2022/09/16 04:14:59;;;;;;;11.75;3.28;;;;;;;;;;6190257;23;20079;-65
2022/09/16 04:17:30;;;;;;;16.13;3.95;;;;;;;;;;6216272;23;20012;-66
2022/09/16 04:19:58;;;;;;;9.70;3.67;;;;;;;;;;6216535;23;20021;-65
2022/09/16 04:22:28;;;;;;;7.85;2.78;;;;;;;;;;6215633;23;20023;-65
2022/09/16 04:24:56;;;;;;;9.15;3.75;;;;;;;;;;6215974;23;20378;-65
2022/09/16 04:27:23;;;;;;;16.25;4.55;;;;;;;;;;6215861;23;20339;-67
2022/09/16 04:29:51;;;;;;;12.40;3.40;;;;;;;;;;6216530;23;20062;-65
2022/09/16 04:32:19;;;;;;;9.20;3.13;;;;;;;;;;6189670;23;20017;-65
2022/09/16 04:34:46;;;;;;;11.10;3.75;;;;;;;;;;6215847;23;20027;-65
2022/09/16 04:37:14;;;;;;;12.65;3.75;;;;;;;;;;6216061;23;20075;-65
2022/09/16 04:39:41;;;;;;;11.05;3.70;;;;;;;;;;6215987;23;20024;-65
2022/09/16 04:42:11;;;;;;;12.50;3.90;;;;;;;;;;6189351;23;20082;-65
2022/09/16 04:44:39;;;;;;;15.05;4.53;;;;;;;;;;6215651;23;20312;-65
2022/09/16 04:47:06;;;;;;;13.95;4.90;;;;;;;;;;6215903;23;20017;-65
2022/09/16 04:49:34;;;;;;;12.07;5.05;;;;;;;;;;6215826;23;20047;-67
2022/09/16 04:52:01;;;;;;;9.82;4.50;;;;;;;;;;6215949;23;20023;-65
2022/09/16 04:54:29;;;;;;;14.27;7.05;;;;;;;;;;6216368;23;20056;-65
2022/09/16 04:56:56;;;;;;;17.85;7.32;;;;;;;;;;6216181;23;20339;-66
2022/09/16 04:59:24;;;;;;;18.08;5.60;;;;;;;;;;6216073;23;20027;-67
2022/09/16 05:01:51;;;;;;;17.23;7.03;;;;;;;;;;6189343;23;20026;-66
2022/09/16 05:04:19;;;;;;;16.77;6.47;;;;;;;;;;6189702;23;20039;-66
2022/09/16 05:06:47;;;;;;;18.70;6.45;;;;;;;;;;6216045;23;20016;-66
2022/09/16 05:09:14;;;;;;;16.58;8.02;;;;;;;;;;6215786;23;20013;-66
2022/09/16 05:11:42;;;;;;;11.13;5.30;;;;;;;;;;6215559;23;20473;-66
2022/09/16 05:14:12;;;;;;;24.15;8.25;;;;;;;;;;6215353;23;20096;-67
2022/09/16 05:16:40;;;;;;;13.18;4.82;;;;;;;;;;6215335;23;20026;-67
2022/09/16 05:19:08;;;;;;;19.17;7.00;;;;;;;;;;6215373;23;20016;-66
2022/09/16 05:21:36;;;;;;;14.52;5.80;;;;;;;;;;6189197;23;20025;-66
2022/09/16 05:24:07;;;;;;;13.25;4.97;;;;;;;;;;6215402;23;20009;-66
2022/09/16 05:26:35;;;;;;;9.38;4.95;;;;;;;;;;6215546;23;20021;-67
2022/09/16 05:29:06;;;;;;;15.75;4.35;;;;;;;;;;6215749;23;20082;-67
2022/09/16 05:31:37;;;;;;;14.02;7.05;;;;;;;;;;6213582;23;20020;-66
2022/09/16 05:34:06;;;;;;;19.27;5.55;;;;;;;;;;6213384;23;20017;-66
2022/09/16 05:36:36;;;;;;;16.88;4.82;;;;;;;;;;6187779;23;20059;-66
2022/09/16 05:39:03;;;;;;;12.10;5.18;;;;;;;;;;6215234;23;20024;-66
2022/09/16 05:41:49;;;;;;;16.50;8.13;;;;;;;;;;6215063;23;20028;-66
2022/09/16 05:44:17;;;;;;;13.23;3.97;;;;;;;;;;6214691;23;20017;-66
2022/09/16 05:46:44;;;;;;;14.60;4.60;;;;;;;;;;6215272;23;20017;-67
2022/09/16 05:49:12;;;;;;;15.60;4.72;;;;;;;;;;6215435;23;20013;-67
2022/09/16 05:51:42;;;;;;;13.27;6.07;;;;;;;;;;6215719;23;20021;-66
2022/09/16 05:54:10;;;;;;;13.30;4.15;;;;;;;;;;6215405;23;20320;-67
2022/09/16 05:56:37;;;;;;;12.82;5.70;;;;;;;;;;6215124;23;20020;-67
2022/09/16 05:59:05;;;;;;;10.13;4.75;;;;;;;;;;6214646;23;20020;-66
2022/09/16 06:01:34;;;;;;;24.75;5.40;;;;;;;;;;6214620;23;20024;-67
2022/09/16 06:04:02;;;;;;;21.77;8.98;;;;;;;;;;6188774;23;20012;-67
2022/09/16 06:06:37;;;;;;;14.90;4.80;;;;;;;;;;6214613;23;20016;-67
2022/09/16 06:09:09;;;;;;;11.40;4.03;;;;;;;;;;6215111;23;20012;-67
2022/09/16 06:11:37;;;;;;;14.70;5.55;;;;;;;;;;6189017;23;20017;-67
2022/09/16 06:14:05;;;;;;;14.07;5.20;;;;;;;;;;6215011;23;20020;-67
2022/09/16 06:16:33;;;;;;;10.50;4.00;;;;;;;;;;6215013;23;20020;-67
2022/09/16 06:19:01;;;;;;;10.80;3.70;;;;;;;;;;6214845;23;20036;-67
2022/09/16 06:21:29;;;;;;;15.85;6.38;;;;;;;;;;6214772;23;20431;-67
2022/09/16 06:23:57;;;;;;;10.38;6.35;;;;;;;;;;6214735;23;20024;-67
2022/09/16 06:26:26;;;;;;;8.95;4.38;;;;;;;;;;6214652;23;20025;-67
2022/09/16 06:28:54;;;;;;;8.77;3.92;;;;;;;;;;6215150;23;20024;-67
2022/09/16 06:31:26;;;;;;;12.90;4.20;;;;;;;;;;6214521;23;20366;-67
2022/09/16 06:33:54;;;;;;;8.57;3.25;;;;;;;;;;6214347;23;20021;-67
2022/09/16 06:36:23;;;;;;;8.68;3.72;;;;;;;;;;6214587;23;20016;-68
2022/09/16 06:38:50;;;;;;;11.73;3.67;;;;;;;;;;6188034;23;20075;-67
2022/09/16 06:41:18;;;;;;;10.10;3.75;;;;;;;;;;6214228;23;20016;-67
2022/09/16 06:43:46;;;;;;;8.45;3.60;;;;;;;;;;6214713;23;20087;-66
2022/09/16 06:46:15;;;;;;;9.63;4.47;;;;;;;;;;6214544;23;20013;-66
2022/09/16 06:48:44;;;;;;;9.95;3.20;;;;;;;;;;6214395;23;20382;-66
2022/09/16 06:51:16;;;;;;;11.07;2.67;;;;;;;;;;6188489;23;20070;-66
2022/09/16 06:53:44;;;;;;;6.80;2.50;;;;;;;;;;6215079;23;20047;-66
2022/09/16 06:56:13;;;;;;;32.22;4.32;;;;;;;;;;6214696;23;20019;-66
2022/09/16 06:58:42;;;;;;;10.10;2.55;;;;;;;;;;6214428;23;20032;-66
2022/09/16 07:01:11;;;;;;;9.68;2.90;;;;;;;;;;6214423;23;20016;-67
2022/09/16 07:03:39;;;;;;;6.53;2.13;;;;;;;;;;6214810;23;20017;-66
2022/09/16 07:06:07;;;;;;;8.05;1.88;;;;;;;;;;6214600;23;20048;-67
2022/09/16 07:08:36;;;;;;;12.55;4.15;;;;;;;;;;6214410;23;20408;-68
2022/09/16 07:11:04;;;;;;;9.13;3.00;;;;;;;;;;6214892;23;20346;-67
2022/09/16 07:13:32;;;;;;;11.82;5.40;;;;;;;;;;6213892;23;20447;-69
2022/09/16 07:16:00;;;;;;;10.98;1.92;;;;;;;;;;6214370;23;20028;-69
2022/09/16 07:18:39;;;;;;;24.92;3.50;;;;;;;;;;6214573;23;20447;-69
2022/09/16 07:21:09;;;;;;;9.45;5.30;;;;;;;;;;6214402;23;20028;-69
2022/09/16 07:23:40;;;;;;;16.85;11.20;;;;;;;;;;6214444;23;20031;-70
2022/09/16 07:26:07;;;;;;;26.23;22.70;;;;;;;;;;6214432;23;20039;-69
2022/09/16 07:28:36;;;;;;;11.93;6.45;;;;;;;;;;6214895;23;20075;-69
2022/09/16 07:31:05;;;;;;;6.85;2.65;;;;;;;;;;6214664;23;20025;-67
2022/09/16 07:33:36;;;;;;;11.30;6.32;;;;;;;;;;6188623;23;20019;-67
2022/09/16 07:36:04;;;;;;;6.85;1.45;;;;;;;;;;6214591;23;20435;-67
2022/09/16 07:38:31;;;;;;;19.42;5.63;;;;;;;;;;6214649;23;20459;-67
2022/09/16 07:41:32;;;;;;;12.73;6.43;;;;;;;;;;6214852;23;20024;-67
2022/09/16 07:44:00;;;;;;;7.35;2.97;;;;;;;;;;6134694;23;20016;-67
2022/09/16 07:46:29;;;;;;;9.10;2.70;;;;;;;;;;6214672;23;20016;-67
2022/09/16 07:48:58;;;;;;;8.70;2.80;;;;;;;;;;6214823;23;20067;-68
2022/09/16 07:51:26;;;;;;;8.88;2.53;;;;;;;;;;6214852;23;20075;-68
2022/09/16 07:53:59;;;;;;;7.68;2.67;;;;;;;;;;6214750;23;20040;-67
2022/09/16 07:56:27;;;;;;;10.82;2.38;;;;;;;;;;6214573;23;20100;-66
2022/09/16 07:58:56;;;;;;;5.63;1.40;;;;;;;;;;6214804;23;20344;-68
2022/09/16 08:01:24;;;;;;;9.75;2.30;;;;;;;;;;6215985;23;20017;-67
2022/09/16 08:03:52;;;;;;;3.72;1.45;;;;;;;;;;6216564;23;20017;-67
2022/09/16 08:06:20;;;;;;;6.57;1.65;;;;;;;;;;6216516;23;20024;-68
2022/09/16 08:08:51;;;;;;;5.40;1.95;;;;;;;;;;6216274;23;20063;-67
2022/09/16 08:11:21;;;;;;;4.15;1.60;;;;;;;;;;6216468;23;20040;-67
2022/09/16 08:13:49;;;;;;;3.45;1.90;;;;;;;;;;6216469;23;20070;-68
2022/09/16 08:16:18;;;;;;;7.15;2.17;;;;;;;;;;6216485;23;20017;-68
2022/09/16 08:18:46;;;;;;;5.05;2.40;;;;;;;;;;6216759;23;20025;-67
2022/09/16 08:21:15;;;;;;;6.50;2.75;;;;;;;;;;6216489;23;20075;-68
2022/09/16 08:23:43;;;;;;;5.88;3.10;;;;;;;;;;6189496;23;20029;-68
2022/09/16 08:26:12;;;;;;;13.60;9.90;;;;;;;;;;6216231;23;20017;-68
2022/09/16 08:28:40;;;;;;;17.15;3.90;;;;;;;;;;6216442;23;20103;-68
2022/09/16 08:31:24;;;;;;;8.82;2.28;;;;;;;;;;6215477;23;20012;-70
2022/09/16 08:33:51;;;;;;;6.25;4.05;;;;;;;;;;6215914;23;20036;-68
2022/09/16 08:36:20;;;;;;;4.60;2.25;;;;;;;;;;6215911;23;20020;-68
2022/09/16 08:38:49;;;;;;;4.72;1.90;;;;;;;;;;6216105;23;20075;-70
2022/09/16 08:41:26;;;;;;;7.07;2.72;;;;;;;;;;6189536;23;20020;-70
2022/09/16 08:43:59;;;;;;;5.68;2.13;;;;;;;;;;6216194;23;20013;-68
2022/09/16 08:46:33;;;;;;;4.70;2.05;;;;;;;;;;6216058;23;20364;-70
2022/09/16 08:49:10;;;;;;;37.17;4.88;;;;;;;;;;6189824;23;20012;-68
2022/09/16 08:51:38;;;;;;;7.82;2.75;;;;;;;;;;6189698;23;20016;-68
2022/09/16 08:54:35;;;;;;;9.93;2.10;;;;;;;;;;6189424;23;20067;-68
2022/09/16 08:57:04;;;;;;;9.60;1.98;;;;;;;;;;6185921;23;20020;-68
2022/09/16 08:59:51;;;;;;;6.85;2.63;;;;;;;;;;6216019;23;20016;-69
2022/09/16 09:02:28;;;;;;;7.35;1.52;;;;;;;;;;6215981;23;20012;-69
2022/09/16 09:04:57;;;;;;;6.68;2.10;;;;;;;;;;6214943;23;20465;-68
2022/09/16 09:07:51;;;;;;;7.53;2.10;;;;;;;;;;6188590;23;20016;-68
2022/09/16 09:10:24;;;;;;;7.63;1.80;;;;;;;;;;6134699;23;20016;-68
2022/09/16 09:12:57;;;;;;;10.70;2.25;;;;;;;;;;6215237;23;20103;-68
2022/09/16 09:15:34;;;;;;;5.55;2.20;;;;;;;;;;6215970;23;20434;-68
2022/09/16 09:18:07;;;;;;;7.22;1.90;;;;;;;;;;6215822;23;20016;-68
2022/09/16 09:20:51;;;;;;;5.38;1.75;;;;;;;;;;6216055;23;20020;-69
2022/09/16 09:23:25;;;;;;;4.50;2.03;;;;;;;;;;6188343;23;20514;-68
2022/09/16 09:25:55;;;;;;;6.32;2.30;;;;;;;;;;6214312;23;20017;-68
2022/09/16 09:28:42;;;;;;;6.13;2.38;;;;;;;;;;6215034;23;20012;-68
2022/09/16 09:31:27;;;;;;;4.15;1.98;;;;;;;;;;6215513;23;20439;-68
2022/09/16 09:34:03;;;;;;;5.50;1.98;;;;;;;;;;6215492;23;20042;-68
2022/09/16 09:36:45;;;;;;;4.30;1.75;;;;;;;;;;6188146;23;20021;-68
2022/09/16 09:39:12;;;;;;;5.50;1.83;;;;;;;;;;6215862;23;20023;-68
2022/09/16 09:41:43;;;;;;;5.13;2.20;;;;;;;;;;6215700;23;20066;-68
2022/09/16 09:44:29;;;;;;;6.32;1.98;;;;;;;;;;6215767;23;20013;-68
2022/09/16 09:46:59;;;;;;;6.88;1.98;;;;;;;;;;6215596;23;20021;-69
2022/09/16 09:49:33;;;;;;;4.30;1.77;;;;;;;;;;6215956;23;20024;-68
2022/09/16 09:52:06;;;;;;;10.85;2.80;;;;;;;;;;6215807;23;20063;-69
2022/09/16 09:54:35;;;;;;;9.30;2.17;;;;;;;;;;6215584;23;20016;-70
2022/09/16 09:57:05;;;;;;;8.50;3.00;;;;;;;;;;6215519;23;20013;-69
2022/09/16 09:59:38;;;;;;;7.53;3.05;;;;;;;;;;6215748;23;20022;-68
2022/09/16 10:02:20;;;;;;;5.57;1.90;;;;;;;;;;6189209;23;20017;-68
2022/09/16 10:04:48;;;;;;;5.63;1.80;;;;;;;;;;6215354;23;20031;-69
2022/09/16 10:07:17;;;;;;;7.40;1.55;;;;;;;;;;6215368;23;20071;-68
2022/09/16 10:10:23;;;;;;;5.95;1.67;;;;;;;;;;6188767;23;20103;-69
2022/09/16 10:12:50;;;;;;;8.90;1.60;;;;;;;;;;6065471;23;20031;-68
2022/09/16 10:15:28;;;;;;;4.78;1.50;;;;;;;;;;6065314;23;20399;-71
2022/09/16 10:17:58;;;;;;;6.97;1.60;;;;;;;;;;6150118;23;20025;-69
2022/09/16 10:20:28;;;;;;;10.20;2.10;;;;;;;;;;6215382;23;20457;-69
2022/09/16 10:23:16;;;;;;;8.48;2.42;;;;;;;;;;6215095;23;20025;-69
2022/09/16 10:25:43;;;;;;;7.22;1.77;;;;;;;;;;6215213;23;20012;-68
2022/09/16 10:28:24;;;;;;;4.00;1.58;;;;;;;;;;6215330;23;20103;-69
2022/09/16 10:30:54;;;;;;;5.43;1.73;;;;;;;;;;6213834;23;20013;-69
2022/09/16 10:33:24;;;;;;;10.75;2.10;;;;;;;;;;6215155;23;20024;-70
2022/09/16 10:36:14;;;;;;;8.88;2.00;;;;;;;;;;6214995;23;20408;-71
2022/09/16 10:38:44;;;;;;;7.95;2.25;;;;;;;;;;6215060;23;20016;-69
2022/09/16 10:41:19;;;;;;;21.65;15.05;;;;;;;;;;6215017;23;20020;-69
2022/09/16 10:43:57;;;;;;;10.68;2.50;;;;;;;;;;6214899;23;20027;-69
2022/09/16 10:46:25;;;;;;;5.00;2.65;;;;;;;;;;6214775;23;20030;-70
2022/09/16 10:48:55;;;;;;;8.90;3.10;;;;;;;;;;6214904;23;20048;-70
2022/09/16 10:51:30;;;;;;;9.20;4.60;;;;;;;;;;6214828;23;20040;-70
2022/09/16 10:53:59;;;;;;;4.90;1.75;;;;;;;;;;6214892;23;20425;-69
2022/09/16 10:56:31;;;;;;;7.03;2.33;;;;;;;;;;6214703;23;20063;-69
2022/09/16 10:59:08;;;;;;;6.60;2.33;;;;;;;;;;6214719;23;20016;-69
2022/09/16 11:01:54;;;;;;;6.70;2.22;;;;;;;;;;6214842;23;20020;-69
2022/09/16 11:04:30;;;;;;;7.88;2.47;;;;;;;;;;6214946;23;20048;-69
2022/09/16 11:07:09;;;;;;;13.00;2.22;;;;;;;;;;6214732;23;20342;-69
2022/09/16 11:09:43;;;;;;;7.95;1.98;;;;;;;;;;6215122;23;20506;-69
2022/09/16 11:12:16;;;;;;;10.90;2.05;;;;;;;;;;6215065;23;20471;-69
2022/09/16 11:14:44;;;;;;;7.25;2.30;;;;;;;;;;6188691;23;20021;-68
2022/09/16 11:17:12;;;;;;;8.13;2.45;;;;;;;;;;6214441;23;20028;-68
2022/09/16 11:19:40;;;;;;;4.13;2.17;;;;;;;;;;6214486;23;20047;-69
2022/09/16 11:22:13;;;;;;;9.68;2.50;;;;;;;;;;6214108;23;20021;-69
2022/09/16 11:24:58;;;;;;;8.77;2.28;;;;;;;;;;6214800;23;20017;-69
2022/09/16 11:27:32;;;;;;;7.90;2.00;;;;;;;;;;6214728;23;20435;-69
2022/09/16 11:30:00;;;;;;;6.10;2.30;;;;;;;;;;6214789;23;20439;-70
2022/09/16 11:32:30;;;;;;;6.28;2.00;;;;;;;;;;6215109;23;20020;-72
2022/09/16 11:34:57;;;;;;;7.93;2.10;;;;;;;;;;6215367;23;20020;-76
2022/09/16 11:37:25;;;;;;;13.27;7.95;;;;;;;;;;6191131;23;20017;-77
2022/09/16 11:39:57;;;;;;;10.23;5.97;;;;;;;;;;6190975;23;20017;-76
2022/09/16 11:42:31;;;;;;;8.40;2.33;;;;;;;;;;6190196;23;20386;-75
2022/09/16 11:44:59;;;;;;;6.47;2.30;;;;;;;;;;6216822;23;20016;-84
2022/09/16 11:47:47;;;;;;;3.70;1.48;;;;;;;;;;6215643;23;20020;-76
2022/09/16 11:50:20;;;;;;;6.53;1.95;;;;;;;;;;6188708;23;20013;-74
2022/09/16 11:53:09;;;;;;;5.25;2.00;;;;;;;;;;6214993;23;20075;-75
2022/09/16 11:55:46;;;;;;;4.95;2.00;;;;;;;;;;6215099;23;20023;-75
2022/09/16 11:58:39;;;;;;;5.68;1.85;;;;;;;;;;6215754;23;20016;-76
2022/09/16 12:01:25;;;;;;;4.88;2.08;;;;;;;;;;6160945;23;20028;-75
2022/09/16 12:04:07;;;;;;;8.93;1.95;;;;;;;;;;6215557;23;20040;-74
2022/09/16 12:06:42;;;;;;;7.47;2.00;;;;;;;;;;6216043;23;20089;-75
2022/09/16 12:09:12;;;;;;;4.85;1.42;;;;;;;;;;6216207;23;20031;-72
2022/09/16 12:11:44;;;;;;;7.10;2.20;;;;;;;;;;6216058;23;20040;-74
2022/09/16 12:14:30;;;;;;;8.65;2.33;;;;;;;;;;6216156;23;20023;-73
2022/09/16 12:17:06;;;;;;;9.30;2.40;;;;;;;;;;6216200;23;20316;-73
2022/09/16 12:19:36;;;;;;;8.18;1.98;;;;;;;;;;6216078;23;20459;-73
2022/09/16 12:22:09;;;;;;;3.58;1.67;;;;;;;;;;6215820;23;20439;-73
2022/09/16 12:24:42;;;;;;;5.47;1.70;;;;;;;;;;6215820;23;20342;-73
2022/09/16 12:27:09;;;;;;;7.03;1.55;;;;;;;;;;6216106;23;20016;-73
2022/09/16 12:29:48;;;;;;;5.55;2.17;;;;;;;;;;6215757;23;20024;-73
2022/09/16 12:32:21;;;;;;;6.10;1.60;;;;;;;;;;6215746;23;20063;-72
2022/09/16 12:34:59;;;;;;;9.02;2.00;;;;;;;;;;6216348;23;20382;-73
2022/09/16 12:37:29;;;;;;;14.43;2.17;;;;;;;;;;6215847;23;20021;-72
2022/09/16 12:39:57;;;;;;;25.70;21.30;;;;;;;;;;6216021;23;20458;-72
2022/09/16 12:42:34;;;;;;;9.48;3.63;;;;;;;;;;6189157;23;20027;-73
2022/09/16 12:45:20;;;;;;;7.18;1.85;;;;;;;;;;6215722;23;20020;-72
2022/09/16 12:48:06;;;;;;;5.85;2.10;;;;;;;;;;6215361;23;20096;-75
2022/09/16 12:50:34;;;;;;;7.43;2.60;;;;;;;;;;6215841;23;20008;-72
2022/09/16 12:53:20;;;;;;;9.95;2.33;;;;;;;;;;6215887;23;20335;-73
2022/09/16 12:56:06;;;;;;;8.32;2.03;;;;;;;;;;6215796;23;20462;-74
2022/09/16 12:58:33;;;;;;;7.78;2.20;;;;;;;;;;6213958;23;20064;-73
2022/09/16 13:01:17;;;;;;;5.90;1.77;;;;;;;;;;6214337;23;20017;-74
2022/09/16 13:04:11;;;;;;;7.03;2.28;;;;;;;;;;6215578;23;20044;-74
2022/09/16 13:06:40;;;;;;;7.40;2.67;;;;;;;;;;6160168;23;20021;-74
2022/09/16 13:09:17;;;;;;;8.18;2.60;;;;;;;;;;6215680;23;20059;-75
2022/09/16 13:11:55;;;;;;;4.00;2.20;;;;;;;;;;6215848;23;20020;-74
2022/09/16 13:14:47;;;;;;;8.45;2.88;;;;;;;;;;6192686;23;20119;-75
2022/09/16 13:17:14;;;;;;;10.68;4.80;;;;;;;;;;6214332;23;20510;-72
2022/09/16 13:19:47;;;;;;;6.43;2.30;;;;;;;;;;6188879;23;20099;-72
2022/09/16 13:22:50;;;;;;;9.80;3.30;;;;;;;;;;6215291;23;20016;-74
2022/09/16 13:25:24;;;;;;;8.77;3.63;;;;;;;;;;6064423;23;20578;-74
2022/09/16 13:27:57;;;;;;;9.90;3.80;;;;;;;;;;6193959;23;20027;-73
2022/09/16 13:30:30;;;;;;;13.85;4.22;;;;;;;;;;6214236;23;20027;-74
2022/09/16 13:33:01;;;;;;;8.50;3.58;;;;;;;;;;6188752;23;20045;-75
2022/09/16 13:35:38;;;;;;;11.30;3.42;;;;;;;;;;6189058;23;20027;-74
2022/09/16 13:38:18;;;;;;;12.60;3.67;;;;;;;;;;6214571;23;20071;-74
2022/09/16 13:40:53;;;;;;;8.98;3.63;;;;;;;;;;6214666;23;20012;-76
2022/09/16 13:43:29;;;;;;;9.05;3.85;;;;;;;;;;6215419;23;20028;-75
2022/09/16 13:46:06;;;;;;;6.50;2.78;;;;;;;;;;6214155;23;20023;-75
2022/09/16 13:48:39;;;;;;;8.80;2.42;;;;;;;;;;6215009;23;20024;-75
2022/09/16 13:51:09;;;;;;;6.63;3.03;;;;;;;;;;6215432;23;20016;-76
2022/09/16 13:53:37;;;;;;;8.05;3.67;;;;;;;;;;6215192;23;20016;-75
2022/09/16 13:56:05;;;;;;;7.57;2.20;;;;;;;;;;6215284;23;20324;-75
2022/09/16 13:58:49;;;;;;;5.93;2.40;;;;;;;;;;6215038;23;20020;-76
2022/09/16 14:01:37;;;;;;;9.53;2.37;;;;;;;;;;6215327;23;20043;-75
2022/09/16 14:04:24;;;;;;;6.75;2.78;;;;;;;;;;6214736;23;20012;-77
2022/09/16 14:06:58;;;;;;;8.55;2.78;;;;;;;;;;6215230;23;20039;-74
2022/09/16 14:09:35;;;;;;;7.57;2.72;;;;;;;;;;6187638;23;20030;-78
2022/09/16 14:12:12;;;;;;;6.43;2.55;;;;;;;;;;6214392;23;20075;-76
2022/09/16 14:14:40;;;;;;;7.50;2.83;;;;;;;;;;6188420;23;20024;-76
2022/09/16 14:17:38;;;;;;;8.85;4.22;;;;;;;;;;6213953;23;20013;-75
2022/09/16 14:20:10;;;;;;;11.70;3.40;;;;;;;;;;6195216;23;20020;-78
2022/09/16 14:22:37;;;;;;;7.72;3.33;;;;;;;;;;6187629;23;20335;-77
2022/09/16 14:25:24;;;;;;;6.65;2.80;;;;;;;;;;6215035;23;20020;-77
2022/09/16 14:28:08;;;;;;;7.88;5.15;;;;;;;;;;6214450;23;20012;-76
2022/09/16 14:30:36;;;;;;;10.57;6.13;;;;;;;;;;6214179;23;20017;-76
2022/09/16 14:33:06;;;;;;;9.32;3.33;;;;;;;;;;6214048;23;20016;-77
2022/09/16 14:35:34;;;;;;;10.68;4.65;;;;;;;;;;6214584;23;20020;-76
2022/09/16 14:38:04;;;;;;;9.50;3.65;;;;;;;;;;6214611;23;20043;-75
2022/09/16 14:40:49;;;;;;;8.85;3.03;;;;;;;;;;6214494;23;20075;-75
2022/09/16 14:43:18;;;;;;;14.35;3.33;;;;;;;;;;6214346;23;20013;-74
2022/09/16 14:45:51;;;;;;;11.63;4.03;;;;;;;;;;6187323;23;20023;-75
2022/09/16 14:48:20;;;;;;;7.07;4.22;;;;;;;;;;6215150;23;20087;-75
2022/09/16 14:50:49;;;;;;;13.93;5.03;;;;;;;;;;6214761;23;20019;-74
2022/09/16 14:53:28;;;;;;;13.38;5.35;;;;;;;;;;6214599;23;20354;-75
2022/09/16 14:56:02;;;;;;;10.10;4.25;;;;;;;;;;6214501;23;20044;-74
2022/09/16 14:58:31;;;;;;;15.82;5.07;;;;;;;;;;6214438;23;20017;-74
2022/09/16 15:01:02;;;;;;;18.15;6.75;;;;;;;;;;6214618;23;20075;-74
2022/09/16 15:03:37;;;;;;;11.63;3.70;;;;;;;;;;6214270;23;20095;-74
2022/09/16 15:06:09;;;;;;;12.68;5.20;;;;;;;;;;6213487;23;20071;-74
2022/09/16 15:08:48;;;;;;;11.30;4.03;;;;;;;;;;6213110;23;20027;-74
2022/09/16 15:11:18;;;;;;;20.25;3.58;;;;;;;;;;6215110;23;20100;-74